TimeEDT,TemperatureF,Dew PointF,Humidity,Sea Level PressureIn,VisibilityMPH,Wind Direction,Wind SpeedMPH,Gust SpeedMPH,PrecipitationIn,Events,Conditions,WindDirDegrees,DateUTC
12:56 AM,66.9,64.9,93,30.01,6.0,WNW,3.5,-,N/A,,Clear,290,2013-09-09 04:56:00
1:56 AM,68.0,64.0,87,30.01,6.0,Calm,Calm,-,N/A,,Clear,0,2013-09-09 05:56:00
2:56 AM,66.0,63.0,90,30.01,6.0,Calm,Calm,-,N/A,,Clear,0,2013-09-09 06:56:00
3:56 AM,66.9,64.0,90,30.03,6.0,Calm,Calm,-,N/A,,Scattered Clouds,0,2013-09-09 07:56:00
4:56 AM,66.0,63.0,90,30.03,5.0,Calm,Calm,-,N/A,,Clear,0,2013-09-09 08:56:00
5:56 AM,64.9,62.1,90,30.05,4.0,Calm,Calm,-,N/A,,Partly Cloudy,0,2013-09-09 09:56:00
6:56 AM,64.9,62.1,90,30.07,3.0,Calm,Calm,-,N/A,,Clear,0,2013-09-09 10:56:00
7:56 AM,69.1,64.9,87,30.09,5.0,Calm,Calm,-,N/A,,Mostly Cloudy,0,2013-09-09 11:56:00
8:56 AM,75.0,64.9,71,30.10,10.0,NE,3.5,-,N/A,,Scattered Clouds,50,2013-09-09 12:56:00
9:56 AM,78.1,64.9,64,30.12,10.0,ENE,4.6,-,N/A,,Mostly Cloudy,70,2013-09-09 13:56:00
10:56 AM,81.0,66.0,60,30.13,10.0,NNE,4.6,-,N/A,,Clear,30,2013-09-09 14:56:00
11:56 AM,84.0,66.0,55,30.13,10.0,Variable,4.6,-,N/A,,Clear,0,2013-09-09 15:56:00
12:56 PM,84.9,64.0,49,30.13,10.0,Calm,Calm,-,N/A,,Partly Cloudy,0,2013-09-09 16:56:00
1:56 PM,87.1,66.0,49,30.12,10.0,NE,6.9,-,N/A,,Clear,40,2013-09-09 17:56:00
2:56 PM,88.0,64.9,46,30.11,10.0,Calm,Calm,-,N/A,,Clear,0,2013-09-09 18:56:00
3:56 PM,88.0,66.0,48,30.10,10.0,Variable,4.6,-,N/A,,Scattered Clouds,0,2013-09-09 19:56:00
4:56 PM,84.0,66.0,55,30.11,10.0,ENE,5.8,-,N/A,,Mostly Cloudy,60,2013-09-09 20:56:00
5:56 PM,82.9,66.0,56,30.10,10.0,ENE,3.5,-,N/A,,Clear,70,2013-09-09 21:56:00
6:56 PM,82.0,66.9,60,30.10,10.0,Calm,Calm,-,N/A,,Clear,0,2013-09-09 22:56:00
7:56 PM,75.0,69.1,82,30.11,10.0,Calm,Calm,-,N/A,,Clear,0,2013-09-09 23:56:00
8:56 PM,73.0,69.1,87,30.12,8.0,Calm,Calm,-,N/A,,Clear,0,2013-09-10 00:56:00
9:56 PM,73.0,68.0,84,30.14,9.0,Calm,Calm,-,N/A,,Clear,0,2013-09-10 01:56:00
10:56 PM,71.1,66.9,87,30.15,8.0,Calm,Calm,-,N/A,,Clear,0,2013-09-10 02:56:00
11:56 PM,71.1,66.9,87,30.16,9.0,Calm,Calm,-,N/A,,Clear,0,2013-09-10 03:56:00